• Join FlightAware (Why Join?)
  • Login
  • US Flag 
10:47PM EDT


 

Airport Tracker/Info


-or-


 

Live Flight TrackerFlight Track Log ✈ RPA3253 ✈ 10-Jun-2013 ✈ KALB - KCLT

Flight Track Log - Related Links

Times and Time Zones

All times are in EDT time to prevent confusion due to time zone crossing. See the RPA3253 flight status page for this flight to view local times or setup timezone preferences in your user account.

Time Position Orientation Groundspeed Altitude Reporting Facility
EDT Latitude Longitude Course Direction KTS MPH feet Rate Location/Type
09:12PM 42.7297 -73.8081 220° Southwest 137 158 1,500  Level Boston Center
09:13PM 42.7103 -73.8669 246° West 234 269 3,700 2,220 Climbing Boston Center
09:14PM 42.7333 -74.2505 270° West  Level FlightAware Approximate
09:14PM 42.7214 -73.9747 278° West 302 348 6,500  Level Boston Center
09:15PM 42.6825 -74.3718 220° Southwest  Level FlightAware Approximate
09:15PM 42.7117 -74.0789 263° West 284 327 10,300  Level Boston Center
09:16PM 42.5975 -74.4674 220° Southwest  Level FlightAware Approximate
09:16PM 42.7039 -74.1861 264° West 268 308 11,500  Level Boston Center
09:17PM 42.5157 -74.5678 220° Southwest  Level FlightAware Approximate
09:17PM 42.6914 -74.3128 262° West 327 376 14,400  Level Boston Center
09:18PM 42.6811 -74.4314 263° West 335 386 16,300 2,040 Climbing Boston Center
09:19PM 42.6683 -74.5608 262° West 340 391 18,500 1,860 Climbing Boston Center
09:20PM 42.6553 -74.6903 262° West 345 397 20,100 1,560 Climbing Boston Center
09:21PM 42.6444 -74.8197 264° West 350 403 21,700 1,680 Climbing Boston Center
09:22PM 42.6064 -74.9422 247° West 355 409 23,500 1,500 Climbing Boston Center
09:23PM 42.5497 -75.0500 235° Southwest 350 403 24,700 1,200 Climbing Boston Center
09:24PM 42.4886 -75.1656 234° Southwest 364 419 26,000 660 Climbing Boston Center
09:25PM 42.4317 -75.2728 234° Southwest 369 425 26,100 360 Climbing Boston Center
09:26PM 42.3725 -75.3939 237° Southwest 374 430 26,800 900 Climbing Boston Center
09:27PM 42.3089 -75.5061 233° Southwest 380 437 28,100 1,440 Climbing Boston Center
09:30PM 42.1614 -75.7731 233° Southwest 387 445 31,900 1,140 Climbing New York Center
09:31PM 42.1025 -75.8858 235° Southwest 387 445 32,000 240 Climbing New York Center
09:32PM 42.0417 -75.9956 233° Southwest 382 440 32,400 480 Climbing New York Center
09:33PM 41.9825 -76.1053 234° Southwest 376 433 33,000 300 Climbing New York Center
09:34PM 41.9236 -76.2122 234° Southwest 366 421 33,000  Level New York Center
09:35PM 41.8644 -76.3214 234° Southwest 366 421 33,000  Level New York Center
09:36PM 41.7986 -76.4356 232° Southwest 366 421 33,000 2,520 Level New York Center
09:37PM 41.7439 -76.5367 234° Southwest 366 421 38,000 1,200 Climbing New York Center
09:38PM 41.6886 -76.6431 235° Southwest 366 421 35,400 -540 Descending New York Center
09:39PM 41.6250 -76.7483 231° Southwest 361 415 36,900 1,260 Climbing New York Center
09:40PM 41.5700 -76.8461 233° Southwest 346 398 38,000 540 Climbing New York Center
09:41PM 41.5169 -76.9467 235° Southwest 341 392 38,000  Level New York Center
09:42PM 41.4572 -77.0519 233° Southwest 349 402 38,000  Level New York Center
09:43PM 41.3975 -77.1597 234° Southwest 363 418 38,000  Level New York Center
09:44PM 41.3375 -77.2644 233° Southwest 363 418 38,000  Level New York Center
09:45PM 41.2778 -77.3667 232° Southwest 363 418 38,000  Level New York Center
09:46PM 41.2178 -77.4683 232° Southwest 363 418 38,000  Level New York Center
09:47PM 41.1575 -77.5753 233° Southwest 363 418 38,000  Level New York Center
09:48PM 41.0975 -77.6767 232° Southwest 363 418 38,000  Level New York Center
09:49PM 41.0256 -77.8003 232° Southwest 374 430 38,000  Level Cleveland Center
09:50PM 40.9656 -77.9075 233° Southwest 374 430 38,000  Level Cleveland Center
09:51PM 40.9033 -78.0117 232° Southwest 374 430 38,000  Level Cleveland Center
09:52PM 40.8389 -78.1131 230° Southwest 374 430 38,000  Level Cleveland Center
09:53PM 40.7722 -78.2169 230° Southwest 368 423 38,000  Level Cleveland Center
09:54PM 40.6994 -78.3264 229° Southwest 368 423 38,000  Level Cleveland Center
09:55PM 40.6328 -78.4300 230° Southwest 363 418 38,000  Level Cleveland Center
09:56PM 40.5658 -78.5331 229° Southwest 368 423 38,000  Level Cleveland Center
09:57PM 40.4839 -78.6150 217° Southwest 368 423 38,000  Level Cleveland Center
09:58PM 40.4017 -78.6936 216° Southwest 373 429 38,000  Level Cleveland Center
09:59PM 40.3236 -78.7639 214° Southwest 379 436 38,000  Level Cleveland Center
10:00PM 40.2414 -78.8422 216° Southwest 379 436 38,000  Level Cleveland Center
10:01PM 40.1592 -78.9178 215° Southwest 379 436 38,000  Level Cleveland Center
10:03PM 39.9906 -79.0767 216° Southwest 362 417 38,000  Level Washington Center
10:04PM 39.9072 -79.1483 213° Southwest 362 417 38,000  Level Washington Center
10:05PM 39.8256 -79.2253 216° Southwest 369 425 38,000  Level Washington Center
10:06PM 39.7400 -79.3019 215° Southwest 369 425 38,000  Level Washington Center
10:07PM 39.6564 -79.3786 215° Southwest 369 425 38,000  Level Washington Center
10:08PM 39.5569 -79.4219 199° South 369 425 38,000  Level Washington Center
10:09PM 39.4581 -79.4489 192° South 369 425 38,000  Level Washington Center
10:10PM 39.3572 -79.4811 194° South 369 425 38,000  Level Washington Center
10:11PM 39.2581 -79.5106 193° South 369 425 38,000 -60 Level Washington Center
10:12PM 39.1592 -79.5400 193° South 369 425 37,900 -600 Descending Washington Center
10:13PM 39.0581 -79.5694 193° South 369 425 36,900 -960 Descending Washington Center
10:14PM 38.9633 -79.6042 196° South 369 425 36,000 -480 Descending Washington Center
10:15PM 38.8536 -79.6356 193° South 363 418 36,000  Level Washington Center
10:16PM 38.7589 -79.6650 194° South 363 418 36,000  Level Washington Center
10:17PM 38.6600 -79.6942 193° South 363 418 36,000  Level Washington Center
10:18PM 38.5694 -79.7208 193° South 363 418 36,000  Level Washington Center
10:19PM 38.4747 -79.7475 192° South 363 418 36,000  Level Washington Center
10:20PM 38.3733 -79.7789 194° South 363 418 36,000  Level Washington Center
10:21PM 38.2764 -79.8078 193° South 363 418 36,000  Level Washington Center
10:22PM 38.1689 -79.8389 193° South 363 418 36,000 -600 Level Washington Center
10:23PM 38.0678 -79.8672 192° South 363 418 34,800 -1,560 Descending Washington Center
10:24PM 37.9689 -79.8958 193° South 363 418 32,900 -1,440 Descending Washington Center
10:25PM 37.8803 -79.9225 193° South 363 418 32,000 -480 Descending Washington Center
10:26PM 37.7811 -79.9536 194° South 363 418 32,000  Level Washington Center
10:27PM 37.6800 -79.9792 191° South 363 418 32,000  Level Washington Center
10:28PM 37.5703 -80.0147 194° South 368 423 32,000  Level Washington Center
10:29PM 37.4692 -80.0403 191° South 373 429 32,000  Level Washington Center
10:30PM 37.3681 -80.0683 192° South 378 435 32,000 -420 Level Washington Center
10:31PM 37.2742 -80.0706 181° South 378 435 31,200 -840 Descending Washington Center
10:32PM 37.1700 -80.0619 176° South 373 429 30,300 -960 Descending Washington Center
10:33PM 37.0681 -80.0533 176° South 367 422 29,300 -1,140 Descending Washington Center
10:34PM 36.9578 -80.0469 177° South 362 417 28,100 -1,080 Descending Washington Center
10:35PM 36.8561 -80.0361 175° South 362 417 27,200 -1,020 Descending Washington Center
10:36PM 36.7789 -80.0294 176° South 369 425 26,400 -1,080 Descending Atlanta Center
10:37PM 36.6808 -80.0214 176° South 364 419 25,400 -1,020 Descending Atlanta Center
10:38PM 36.5825 -80.0161 178° South 364 419 24,400 -960 Descending Atlanta Center
10:39PM 36.4947 -80.0100 177° South 359 413 23,500 -960 Descending Atlanta Center
10:40PM 36.3964 -80.0022 176° South 359 413 22,500 -780 Descending Atlanta Center
10:41PM 36.3072 -80.0117 185° South 343 395 22,000 -420 Descending Atlanta Center
10:42PM 36.2319 -80.0722 213° Southwest 327 376 21,700 -1,260 Descending Atlanta Center
10:43PM 36.1508 -80.1431 215° Southwest 317 365 19,500 -1,980 Descending Atlanta Center
10:44PM 36.0817 -80.2028 215° Southwest 322 371 17,800 -1,680 Descending Atlanta Center
10:45PM 36.0086 -80.2653 215° Southwest 322 371 16,200 -1,740 Descending Atlanta Center
10:45PM 35.9886 -80.2894 224° Southwest 308 354 15,600 -1,740 Descending Atlanta Center
10:46PM 35.9394 -80.3225 209° Southwest 322 371 14,500 -1,680 Descending Atlanta Center
10:46PM 35.8908 -80.3708 219° Southwest 308 354 13,300 -1,500 Descending Atlanta Center
10:47PM 35.8683 -80.3897 214° Southwest 327 376 13,000 -180 Descending Atlanta Center
10:47PM 35.8114 -80.4383 215° Southwest 305 351 13,100 -180 Climbing Atlanta Center
10:48PM 35.7586 -80.4817 214° Southwest 287 330 12,800 -900 Descending Atlanta Center
10:49PM 35.7319 -80.4983 207° Southwest 300 345 12,100 -2,280 Descending Atlanta Center
10:49PM 35.6850 -80.5333 211° Southwest 272 313 10,300 -2,340 Descending Atlanta Center
10:50PM 35.6664 -80.5444 206° Southwest 289 333 9,800 -2,100 Descending Atlanta Center
10:50PM 35.6153 -80.5825 211° Southwest 282 325 8,200 -1,980 Descending Atlanta Center
10:51PM 35.5458 -80.6314 210° Southwest 281 323 6,300 -1,080 Descending Atlanta Center
10:52PM 35.4822 -80.6747 209° Southwest 271 312 6,100 -840 Descending Atlanta Center
10:53PM 35.4167 -80.7208 210° Southwest 266 306 4,600 -1,080 Descending Atlanta Center
10:54PM 35.3533 -80.7667 211° Southwest 246 283 4,000 -600 Descending Atlanta Center